This is the latest recevied weather packets stored in our database for station/object DJ2KUA-6. If no packets are shown the sender has not sent any weather packets the latest 10 day(s).
| Time | Temp. | Humidity | Pressure | Rain* | Wind** | Luminosity | Snow |
|---|---|---|---|---|---|---|---|
| 1788626276 | 25.56° C | 36% | 1075 hPa | 0 mm | - | - | - |
| 1788625134 | 26.11° C | 35% | 1075 hPa | 0 mm | - | - | - |
| 1788623993 | 26.67° C | 35% | 1074 hPa | 0 mm | - | - | - |
| 1788622853 | 26.67° C | 35% | 1074 hPa | 0 mm | - | - | - |
| 1788620573 | 26.67° C | 37% | 1074 hPa | 0 mm | - | - | - |
| 1788619433 | 26.67° C | 38% | 1074 hPa | 0 mm | - | - | - |
| 1788618292 | 26.67° C | 38% | 1074 hPa | 0 mm | - | - | - |
| 1788617154 | 26.67° C | 39% | 1074 hPa | 0 mm | - | - | - |
| 1788616013 | 26.67° C | 39% | 1074 hPa | 0 mm | - | - | - |
| 1788613734 | 26.11° C | 41% | 1075 hPa | 0 mm | - | - | - |
| 1788612597 | 26.11° C | 44% | 1075 hPa | 0 mm | - | - | - |
| 1788611454 | 25.56° C | 45% | 1074 hPa | 0 mm | - | - | - |
| 1788609174 | 25° C | 51% | 1075 hPa | 0 mm | - | - | - |
| 1788608035 | 24.44° C | 54% | 1075 hPa | 0 mm | - | - | - |
| 1788607469 | 21.11° C | 78% | 1074 hPa | 0 mm | - | - | - |
| 1788606893 | 23.89° C | 54% | 1075 hPa | 0 mm | - | - | - |
| 1788605753 | 23.89° C | 56% | 1075 hPa | 0 mm | - | - | - |
| 1788604614 | 23.33° C | 58% | 1075 hPa | 0 mm | - | - | - |
| 1788603474 | 23.89° C | 58% | 1075 hPa | 0 mm | - | - | - |
| 1788602333 | 23.33° C | 59% | 1075 hPa | 0 mm | - | - | - |
| 1788601195 | 23.89° C | 61% | 1075 hPa | 0 mm | - | - | - |
| 1788600054 | 22.78° C | 64% | 1075 hPa | 0 mm | - | - | - |
| 1788598913 | 22.78° C | 67% | 1075 hPa | 0 mm | - | - | - |
| 1788597773 | 22.78° C | 71% | 1074 hPa | 0 mm | - | - | - |
| 1788596635 | 22.78° C | 72% | 1074 hPa | 0 mm | - | - | - |
* Rain latest hour (hover to see other rain measurements)
** Current wind speed in m/s (hover to see current wind gust speed)